createdAt,value
2023-04-24T00:01:09.116Z,27.60
2023-04-24T00:04:11.412Z,29.90
2023-04-24T00:07:13.582Z,30.90
2023-04-24T00:10:15.262Z,25.50
2023-04-24T00:13:17.074Z,28.10
2023-04-24T00:16:18.800Z,32.30
2023-04-24T00:19:20.515Z,26.40
2023-04-24T00:22:22.213Z,25.50
2023-04-24T00:25:23.844Z,29.60
2023-04-24T00:31:27.252Z,27.30
2023-04-24T00:34:28.977Z,30.40
2023-04-24T00:37:30.675Z,28.90
2023-04-24T00:40:32.262Z,25.30
2023-04-24T00:43:34.022Z,23.60
2023-04-24T00:46:36.999Z,25.80
2023-04-24T00:49:38.771Z,24.60
2023-04-24T00:52:40.398Z,22.80
2023-04-24T00:58:44.206Z,21.60
2023-04-24T01:01:46.358Z,24.00
2023-04-24T01:04:48.013Z,22.00
2023-04-24T01:10:52.998Z,23.80
2023-04-24T01:13:54.638Z,19.90
2023-04-24T01:19:57.848Z,23.40
2023-04-24T01:29:02.943Z,21.80
2023-04-24T01:32:05.545Z,22.70
2023-04-24T01:35:08.353Z,23.40
2023-04-24T01:38:10.041Z,25.00
2023-04-24T01:41:11.736Z,21.80
2023-04-24T01:44:13.350Z,22.70
2023-04-24T01:47:15.020Z,23.80
2023-04-24T01:50:16.769Z,22.30
2023-04-24T01:53:18.411Z,21.80
2023-04-24T01:56:21.392Z,24.00
2023-04-24T01:59:24.700Z,22.30
2023-04-24T02:02:26.799Z,22.60
2023-04-24T02:05:29.202Z,22.40
2023-04-24T02:08:30.889Z,23.20
2023-04-24T02:14:34.124Z,22.50
2023-04-24T02:17:35.884Z,26.20
2023-04-24T02:20:37.474Z,23.80
2023-04-24T02:26:40.568Z,23.20
2023-04-24T02:29:42.850Z,24.90
2023-04-24T02:32:44.941Z,25.30
2023-04-24T02:35:46.692Z,23.10
2023-04-24T02:41:49.880Z,30.10
2023-04-24T02:47:53.265Z,23.30
2023-04-24T02:50:55.362Z,24.50
2023-04-24T02:53:57.069Z,31.60
2023-04-24T02:56:58.750Z,28.10
2023-04-24T03:03:02.568Z,27.60
2023-04-24T03:06:04.445Z,23.90
2023-04-24T03:12:07.734Z,28.20
2023-04-24T03:18:11.457Z,28.80
2023-04-24T03:21:13.217Z,33.90
2023-04-24T03:27:16.393Z,33.30
2023-04-24T03:33:19.543Z,26.50
2023-04-24T03:39:22.840Z,23.30
2023-04-24T03:42:24.513Z,24.50
2023-04-24T03:48:27.875Z,29.50
2023-04-24T03:54:31.132Z,29.80
2023-04-24T03:57:33.178Z,30.00
2023-04-24T04:03:36.542Z,36.70
2023-04-24T04:06:38.758Z,30.50
2023-04-24T04:09:40.403Z,34.20
2023-04-24T04:12:42.149Z,34.30
2023-04-24T04:18:45.877Z,29.20
2023-04-24T04:21:47.535Z,35.60
2023-04-24T04:27:50.792Z,32.00
2023-04-24T04:33:54.197Z,29.00
2023-04-24T04:36:55.915Z,28.50
2023-04-24T04:39:59.096Z,29.70
2023-04-24T04:43:00.713Z,25.50
2023-04-24T04:49:04.137Z,27.50
2023-04-24T04:52:06.066Z,30.90
2023-04-24T04:55:08.194Z,32.70
2023-04-24T04:58:09.852Z,35.30
2023-04-24T05:01:11.734Z,30.90
2023-04-24T05:04:13.631Z,27.00
2023-04-24T05:07:15.581Z,29.20
2023-04-24T05:10:17.262Z,25.20
2023-04-24T05:13:22.854Z,27.80
2023-04-24T05:16:30.388Z,27.30
2023-04-24T05:19:32.085Z,24.20
2023-04-24T05:22:33.932Z,26.30
2023-04-24T05:25:35.619Z,25.80
2023-04-24T05:28:37.323Z,23.00
2023-04-24T05:31:39.004Z,27.60
2023-04-24T05:34:40.737Z,26.70
2023-04-24T05:37:42.388Z,29.40
2023-04-24T05:40:44.411Z,25.00
2023-04-24T05:43:46.176Z,22.60
2023-04-24T05:46:47.973Z,31.50
2023-04-24T05:49:49.681Z,27.40
2023-04-24T05:52:51.271Z,21.70
2023-04-24T05:55:53.068Z,22.40
2023-04-24T05:58:54.708Z,22.80
2023-04-24T06:01:56.463Z,21.10
2023-04-24T06:04:58.500Z,24.50
2023-04-24T06:08:00.484Z,23.30
2023-04-24T06:11:04.357Z,20.10
2023-04-24T06:14:06.305Z,21.90
2023-04-24T06:17:07.920Z,18.90
2023-04-24T06:20:09.900Z,18.80
2023-04-24T06:23:11.572Z,17.40
2023-04-24T06:26:13.255Z,15.40
2023-04-24T06:29:14.909Z,21.00
2023-04-24T06:32:16.683Z,19.20
2023-04-24T06:35:18.837Z,14.80
2023-04-24T06:38:20.606Z,16.90
2023-04-24T06:41:22.317Z,17.00
2023-04-24T06:44:23.953Z,16.90
2023-04-24T06:47:25.608Z,14.70
2023-04-24T06:50:27.347Z,16.00
2023-04-24T06:53:29.064Z,16.80
2023-04-24T06:56:31.004Z,16.10
2023-04-24T06:59:32.595Z,15.00
2023-04-24T07:02:34.292Z,15.30
2023-04-24T07:05:36.467Z,16.00
2023-04-24T07:08:38.585Z,17.10
2023-04-24T07:11:40.726Z,17.00
2023-04-24T07:14:42.413Z,17.40
2023-04-24T07:17:44.195Z,14.60
2023-04-24T07:20:46.031Z,15.10
2023-04-24T07:23:47.652Z,15.90
2023-04-24T07:26:49.461Z,15.70
2023-04-24T07:29:51.066Z,14.60
2023-04-24T07:32:52.785Z,19.70
2023-04-24T07:35:54.426Z,13.60
2023-04-24T07:38:56.525Z,13.80
2023-04-24T07:41:58.460Z,17.00
2023-04-24T07:45:00.117Z,15.10
2023-04-24T07:48:02.366Z,14.10
2023-04-24T07:51:04.153Z,16.10
2023-04-24T07:54:06.395Z,15.20
2023-04-24T07:57:08.214Z,13.50
2023-04-24T08:00:10.355Z,11.70
2023-04-24T08:03:12.351Z,13.00
2023-04-24T08:06:14.185Z,11.80
2023-04-24T08:09:15.788Z,13.70
2023-04-24T08:12:17.510Z,15.20
2023-04-24T08:15:19.422Z,13.50
2023-04-24T08:18:21.088Z,11.50
2023-04-24T08:21:22.759Z,13.30
2023-04-24T08:24:24.416Z,15.80
2023-04-24T08:27:27.316Z,13.70
2023-04-24T08:30:29.389Z,17.40
2023-04-24T08:33:31.934Z,15.10
2023-04-24T08:36:45.825Z,15.20
2023-04-24T08:39:49.774Z,14.50
2023-04-24T08:42:54.862Z,14.00
2023-04-24T08:45:58.154Z,12.70
2023-04-24T08:49:00.595Z,13.40
2023-04-24T08:52:02.952Z,13.90
2023-04-24T08:55:07.007Z,11.50
2023-04-24T08:58:09.332Z,16.60
2023-04-24T09:01:11.339Z,12.30
2023-04-24T09:04:14.033Z,13.00
2023-04-24T09:07:17.636Z,13.90
2023-04-24T09:10:19.533Z,14.70
2023-04-24T09:13:21.517Z,14.80
2023-04-24T09:16:23.465Z,12.20
2023-04-24T09:19:25.105Z,11.70
2023-04-24T09:22:30.958Z,13.30
2023-04-24T09:25:34.025Z,12.20
2023-04-24T09:28:41.187Z,11.20
2023-04-24T09:31:42.917Z,17.80
2023-04-24T09:34:48.270Z,13.10
2023-04-24T09:37:49.939Z,12.40
2023-04-24T09:40:51.781Z,10.80
2023-04-24T09:43:55.282Z,12.30
2023-04-24T09:46:59.005Z,10.40
2023-04-24T09:50:00.693Z,11.90
2023-04-24T09:53:04.553Z,13.80
2023-04-24T09:56:10.414Z,11.10
2023-04-24T09:59:13.799Z,14.60
2023-04-24T10:02:19.772Z,10.80
2023-04-24T10:05:25.002Z,13.00
2023-04-24T10:08:26.908Z,10.00
2023-04-24T10:11:29.087Z,10.80
2023-04-24T10:14:31.304Z,12.90
2023-04-24T10:17:33.698Z,10.10
2023-04-24T10:20:37.593Z,13.60
2023-04-24T10:23:39.724Z,12.50
2023-04-24T10:26:41.752Z,12.70
2023-04-24T10:29:44.670Z,10.30
2023-04-24T10:32:46.770Z,14.60
2023-04-24T10:35:51.139Z,14.00
2023-04-24T10:38:54.177Z,13.20
2023-04-24T10:41:56.313Z,14.80
2023-04-24T10:44:58.398Z,13.40
2023-04-24T10:48:08.876Z,12.90
2023-04-24T10:51:13.911Z,13.80
2023-04-24T10:54:28.855Z,12.90
2023-04-24T10:57:30.525Z,15.30
2023-04-24T11:00:32.380Z,15.10
2023-04-24T11:03:37.371Z,14.50
2023-04-24T11:06:39.232Z,12.20
2023-04-24T11:09:43.304Z,12.20
2023-04-24T11:12:44.919Z,14.20
2023-04-24T11:16:16.472Z,13.20
2023-04-24T11:19:18.115Z,11.40
2023-04-24T11:22:19.982Z,12.10
2023-04-24T11:25:22.452Z,9.30
2023-04-24T11:28:25.567Z,12.10
2023-04-24T11:31:41.493Z,12.90
2023-04-24T11:34:46.919Z,12.30
2023-04-24T11:38:08.104Z,12.60
2023-04-24T11:41:12.567Z,13.50
2023-04-24T11:44:14.915Z,16.30
2023-04-24T11:47:17.001Z,15.10
2023-04-24T11:50:20.693Z,15.30
2023-04-24T11:53:22.394Z,13.20
2023-04-24T11:56:25.115Z,14.90
2023-04-24T11:59:26.797Z,10.30
2023-04-24T12:02:28.690Z,12.00
2023-04-24T12:05:30.963Z,12.20
2023-04-24T12:08:32.655Z,11.60
2023-04-24T12:11:34.261Z,13.00
2023-04-24T12:14:54.765Z,11.50
2023-04-24T12:17:57.846Z,12.30
2023-04-24T12:21:23.469Z,17.80
2023-04-24T12:24:25.229Z,12.70
2023-04-24T12:27:26.977Z,11.70
2023-04-24T12:30:29.662Z,11.60
2023-04-24T12:33:35.307Z,11.30
2023-04-24T12:36:37.128Z,10.40
2023-04-24T12:39:38.847Z,13.30
2023-04-24T12:42:51.187Z,12.20
2023-04-24T12:45:52.861Z,18.10
2023-04-24T12:48:54.461Z,13.90
2023-04-24T12:51:56.112Z,18.30
2023-04-24T12:54:59.862Z,15.60
2023-04-24T12:58:01.560Z,15.40
2023-04-24T13:01:03.281Z,14.60
2023-04-24T13:04:06.742Z,15.70
2023-04-24T13:07:08.699Z,15.50
2023-04-24T13:10:10.659Z,20.40
2023-04-24T13:13:13.359Z,15.90
2023-04-24T13:16:15.112Z,16.40
2023-04-24T13:19:16.774Z,17.30
2023-04-24T13:22:19.199Z,24.50
2023-04-24T13:25:21.012Z,13.90
2023-04-24T13:28:22.614Z,17.70
2023-04-24T13:31:24.568Z,20.30
2023-04-24T13:34:27.112Z,17.00
2023-04-24T13:37:28.919Z,17.10
2023-04-24T13:40:30.480Z,19.40
2023-04-24T13:43:32.146Z,19.40
2023-04-24T13:46:34.020Z,16.10
2023-04-24T13:49:36.128Z,15.80
2023-04-24T13:52:38.871Z,19.30
2023-04-24T13:55:40.619Z,17.70
2023-04-24T13:58:42.247Z,18.40
2023-04-24T14:01:44.256Z,18.60
2023-04-24T14:04:46.247Z,19.00
2023-04-24T14:07:48.199Z,20.00
2023-04-24T14:10:49.861Z,18.50
2023-04-24T14:13:51.561Z,19.10
2023-04-24T14:20:56.028Z,17.60
2023-04-24T14:23:57.658Z,23.70
2023-04-24T14:26:59.311Z,60.00
2023-04-24T14:30:01.187Z,33.90
2023-04-24T14:33:02.998Z,16.40
2023-04-24T14:36:04.912Z,26.40
2023-04-24T14:39:07.099Z,20.80
2023-04-24T14:42:08.706Z,17.90
2023-04-24T14:45:10.822Z,25.90
2023-04-24T14:48:12.633Z,70.70
2023-04-24T14:51:14.281Z,30.40
2023-04-24T14:54:16.051Z,29.40
2023-04-24T14:57:17.965Z,13.30
2023-04-24T15:00:20.186Z,20.20
2023-04-24T15:03:22.573Z,25.40
2023-04-24T15:06:24.585Z,30.40
2023-04-24T15:09:26.181Z,18.80
2023-04-24T15:12:28.142Z,30.20
2023-04-24T15:15:29.825Z,30.60
2023-04-24T15:18:31.497Z,59.20
2023-04-24T15:21:33.214Z,44.40
2023-04-24T15:24:35.239Z,32.60
2023-04-24T15:27:44.561Z,18.70
2023-04-24T15:30:46.292Z,21.90
2023-04-24T15:33:48.365Z,15.90
2023-04-24T15:36:50.500Z,17.00
2023-04-24T15:39:52.086Z,10.00
2023-04-24T15:42:53.715Z,34.00
2023-04-24T15:45:55.578Z,15.30
2023-04-24T15:48:57.358Z,14.20
2023-04-24T15:51:59.018Z,14.40
2023-04-24T15:55:01.049Z,16.20
2023-04-24T15:58:02.983Z,18.90
2023-04-24T16:01:04.761Z,13.50
2023-04-24T16:04:06.485Z,15.70
2023-04-24T16:07:08.214Z,15.00
2023-04-24T16:10:10.767Z,13.30
2023-04-24T16:13:13.449Z,14.70
2023-04-24T16:16:15.146Z,17.50
2023-04-24T16:19:16.857Z,13.70
2023-04-24T16:22:18.557Z,14.70
2023-04-24T16:25:20.337Z,14.90
2023-04-24T16:28:22.369Z,13.90
2023-04-24T16:31:24.100Z,13.00
2023-04-24T16:34:25.823Z,13.10
2023-04-24T16:37:29.146Z,12.60
2023-04-24T16:40:31.352Z,15.50
2023-04-24T16:43:33.174Z,12.70
2023-04-24T16:46:35.291Z,12.60
2023-04-24T16:49:37.445Z,12.40
2023-04-24T16:52:39.360Z,12.40
2023-04-24T16:55:40.970Z,13.10
2023-04-24T16:58:42.612Z,11.80
2023-04-24T17:01:44.400Z,15.00
2023-04-24T17:04:46.298Z,14.60
2023-04-24T17:07:47.952Z,13.40
2023-04-24T17:10:49.655Z,10.80
2023-04-24T17:13:51.598Z,15.10
2023-04-24T17:16:53.515Z,12.00
2023-04-24T17:19:55.299Z,15.80
2023-04-24T17:22:57.251Z,15.70
2023-04-24T17:25:58.945Z,13.80
2023-04-24T17:29:00.589Z,14.50
2023-04-24T17:32:02.273Z,15.00
2023-04-24T17:35:04.060Z,16.90
2023-04-24T17:38:05.800Z,14.00
2023-04-24T17:41:07.515Z,16.60
2023-04-24T17:44:09.173Z,16.80
2023-04-24T17:47:10.965Z,18.90
2023-04-24T17:50:12.619Z,16.90
2023-04-24T17:53:14.312Z,17.00
2023-04-24T17:56:16.023Z,16.10
2023-04-24T17:59:17.710Z,19.50
2023-04-24T18:02:19.583Z,18.40
2023-04-24T18:05:21.541Z,22.90
2023-04-24T18:08:23.180Z,19.00
2023-04-24T18:11:24.880Z,20.20
2023-04-24T18:14:26.536Z,21.80
2023-04-24T18:17:29.460Z,19.90
2023-04-24T18:20:31.128Z,22.60
2023-04-24T18:23:32.736Z,20.40
2023-04-24T18:26:34.911Z,19.90
2023-04-24T18:29:36.686Z,19.90
2023-04-24T18:32:38.386Z,19.50
2023-04-24T18:35:40.128Z,19.40
2023-04-24T18:38:42.067Z,21.60
2023-04-24T18:41:43.740Z,24.40
2023-04-24T18:44:45.536Z,24.60
2023-04-24T18:47:47.248Z,23.80
2023-04-24T18:50:48.932Z,23.20
2023-04-24T18:53:50.567Z,21.90
2023-04-24T18:56:52.620Z,21.60
2023-04-24T18:59:54.219Z,24.80
2023-04-24T19:02:56.009Z,27.20
2023-04-24T19:05:57.874Z,26.10
2023-04-24T19:08:59.675Z,25.70
2023-04-24T19:12:01.370Z,24.00
2023-04-24T19:15:03.278Z,25.10
2023-04-24T19:18:05.491Z,27.30
2023-04-24T19:21:07.246Z,25.10
2023-04-24T19:24:08.840Z,25.60
2023-04-24T19:27:10.462Z,26.50
2023-04-24T19:30:12.364Z,25.60
2023-04-24T19:33:14.057Z,26.50
2023-04-24T19:36:16.768Z,25.20
2023-04-24T19:39:18.491Z,24.70
2023-04-24T19:42:28.485Z,25.80
2023-04-24T19:45:37.903Z,30.70
2023-04-24T19:48:40.139Z,33.10
2023-04-24T19:51:41.755Z,26.60
2023-04-24T19:54:43.940Z,29.60
2023-04-24T19:57:45.659Z,27.60
2023-04-24T20:00:47.391Z,28.90
2023-04-24T20:03:49.376Z,30.40
2023-04-24T20:06:51.212Z,27.10
2023-04-24T20:09:52.845Z,27.80
2023-04-24T20:12:54.812Z,25.00
2023-04-24T20:15:56.490Z,26.30
2023-04-24T20:18:58.628Z,28.40
2023-04-24T20:22:00.368Z,27.30
2023-04-24T20:25:02.599Z,28.10
2023-04-24T20:28:04.279Z,30.00
2023-04-24T20:31:05.946Z,29.60
2023-04-24T20:34:08.040Z,45.60
2023-04-24T20:37:09.815Z,42.20
2023-04-24T20:41:07.966Z,41.20
2023-04-24T20:44:09.685Z,30.50
2023-04-24T20:47:11.734Z,45.30
2023-04-24T20:50:13.395Z,33.60
2023-04-24T20:53:15.027Z,34.80
2023-04-24T20:56:17.004Z,45.50
2023-04-24T20:59:18.634Z,61.60
2023-04-24T21:02:20.368Z,54.10
2023-04-24T21:05:22.097Z,57.00
2023-04-24T21:08:23.820Z,39.60
2023-04-24T21:11:25.435Z,35.80
2023-04-24T21:14:27.097Z,40.00
2023-04-24T21:17:28.771Z,36.50
2023-04-24T21:20:30.455Z,40.80
2023-04-24T21:23:32.129Z,42.10
2023-04-24T21:26:34.398Z,43.50
2023-04-24T21:29:36.086Z,38.30
2023-04-24T21:32:37.926Z,38.70
2023-04-24T21:35:39.566Z,44.70
2023-04-24T21:38:41.237Z,40.50
2023-04-24T21:41:42.945Z,35.60
2023-04-24T21:44:44.610Z,37.60
2023-04-24T21:47:46.353Z,35.60
2023-04-24T21:50:48.171Z,32.40
2023-04-24T21:53:50.209Z,33.80
2023-04-24T21:56:52.398Z,35.20
2023-04-24T21:59:54.226Z,34.60
2023-04-24T22:02:56.105Z,39.20
2023-04-24T22:05:57.869Z,37.50
2023-04-24T22:08:59.767Z,35.20
2023-04-24T22:12:01.599Z,39.40
2023-04-24T22:15:03.521Z,33.40
2023-04-24T22:18:05.581Z,38.30
2023-04-24T22:21:07.412Z,38.20
2023-04-24T22:24:09.052Z,33.10
2023-04-24T22:27:10.664Z,37.70
2023-04-24T22:30:12.559Z,36.60
2023-04-24T22:33:14.240Z,34.30
2023-04-24T22:36:16.069Z,34.50
2023-04-24T22:39:17.740Z,34.70
2023-04-24T22:42:20.059Z,34.90
2023-04-24T22:45:21.736Z,36.40
2023-04-24T22:48:23.641Z,32.80
2023-04-24T22:51:25.344Z,33.60
2023-04-24T22:54:29.026Z,31.00
2023-04-24T22:57:31.574Z,31.80
2023-04-24T23:00:33.227Z,35.40
2023-04-24T23:03:35.054Z,32.50
2023-04-24T23:06:37.343Z,36.90
2023-04-24T23:09:39.079Z,36.30
2023-04-24T23:12:40.937Z,40.40
2023-04-24T23:15:42.848Z,40.30
2023-04-24T23:18:44.456Z,41.00
2023-04-24T23:21:46.204Z,42.40
2023-04-24T23:24:47.861Z,41.40
2023-04-24T23:27:49.552Z,45.30
2023-04-24T23:30:51.289Z,45.30
2023-04-24T23:33:52.965Z,47.90
2023-04-24T23:36:55.450Z,50.80
2023-04-24T23:39:57.064Z,45.80
2023-04-24T23:43:07.408Z,46.40
2023-04-24T23:46:10.055Z,52.10
2023-04-24T23:49:11.694Z,51.30
2023-04-24T23:52:13.375Z,47.90
2023-04-24T23:55:15.040Z,48.00
2023-04-24T23:58:16.662Z,50.50
